Flight Track Log - Related Links

Times and Time Zones

All times are in EDT time to prevent confusion due to time zone crossing. See the UAL4335 flight status page for this flight to view local times or setup timezone preferences in your user account.

Time Position Orientation Groundspeed Altitude Reporting Facility
EDT Latitude Longitude Course Direction KTS MPH feet Rate Location/Type
Sat 02:55:59 PM 42.0167 -87.8833 346° North 169 194 2,600  Level Chicago TRACON
Sat 02:57:00 PM 42.0833 -87.8667 11° North 233 268 4,600 1,190 Climbing Chicago TRACON
Sat 02:58:05 PM 42.1517 -87.8350 19° North 251 289 5,100 189 Climbing Chicago Center
Sat 02:59:07 PM 42.2214 -87.8042 18° North 263 303 5,000 774 Descending Chicago Center
Sat 03:00:09 PM 42.2931 -87.8111 356° North 260 299 6,700 2,244 Climbing Chicago Center
Sat 03:01:00 PM 42.8134 -88.1822 346° North  Level FlightAware Approximate
Sat 03:01:10 PM 42.3786 -87.8158 358° North 276 318 9,600  Level Chicago Center
Sat 03:02:12 PM 42.4597 -87.8236 356° North 291 335 11,800 1,790 Climbing Chicago Center
Sat 03:03:14 PM 42.5481 -87.8311 356° North 312 359 13,300 1,161 Climbing Chicago Center
Sat 03:04:16 PM 42.6478 -87.8389 357° North 353 406 14,200 1,452 Climbing Chicago Center
Sat 03:05:18 PM 42.7681 -87.8492 356° North 369 425 16,300 1,645 Climbing Chicago Center
Sat 03:06:20 PM 42.8669 -87.8825 346° North 380 437 17,600 1,403 Climbing Chicago Center
Sat 03:07:22 PM 42.9397 -87.9931 312° West 392 451 19,200 1,306 Climbing Chicago Center
Sat 03:08:24 PM 43.0094 -88.1075 310° West 393 452 20,300 1,113 Climbing Chicago Center
Sat 03:09:26 PM 43.0808 -88.2267 309° West 401 461 21,500 1,113 Climbing Chicago Center
Sat 03:10:28 PM 43.1397 -88.3608 301° West 417 480 22,600 1,024 Climbing Chicago Center
Sat 03:11:29 PM 43.1831 -88.5072 292° West 411 473 23,600 1,122 Climbing Chicago Center
Sat 03:12:31 PM 43.2350 -88.6814 292° West 418 481 24,900 1,113 Climbing Chicago Center
Sat 03:13:33 PM 43.2794 -88.8289 293° West 415 478 25,900 968 Climbing Chicago Center
Sat 03:14:35 PM 43.3225 -88.9767 292° West 414 476 26,900 823 Climbing Chicago Center
Sat 03:15:37 PM 43.3658 -89.1261 292° West 418 481 27,600 581 Climbing Chicago Center
Sat 03:16:39 PM 43.4025 -89.2783 288° West 420 483 28,100 484 Climbing Chicago Center
Sat 03:17:41 PM 43.4397 -89.4331 288° West 425 489 28,600 532 Climbing Chicago Center
Sat 03:18:43 PM 43.4772 -89.5903 288° West 432 497 29,200 581 Climbing Chicago Center
Sat 03:19:45 PM 43.5225 -89.7758 289° West 437 503 29,800 677 Climbing Chicago Center
Sat 03:20:47 PM 43.5600 -89.9369 288° West 441 507 30,600 871 Climbing Chicago Center
Sat 03:21:49 PM 43.5975 -90.0947 288° West 434 499 31,600 958 Climbing Chicago Center
Sat 03:22:46 PM 43.6297 -90.2319 288° West 434 499 32,500 1,016 Climbing Minneapolis Center
Sat 03:23:53 PM 43.6739 -90.4211 288° West 434 499 33,700 1,023 Climbing Chicago Center
Sat 03:24:55 PM 43.7103 -90.5769 288° West 433 498 34,700 1,017 Climbing Chicago Center
Sat 03:25:51 PM 43.7464 -90.7297 288° West 427 491 35,700 661 Climbing Minneapolis Center
Sat 03:26:53 PM 43.7817 -90.8842 288° West 427 491 36,000 145 Climbing Minneapolis Center
Sat 03:27:55 PM 43.8164 -91.0406 287° West 430 495 36,000  Level Minneapolis Center
Sat 03:28:56 PM 43.8528 -91.1986 288° West 434 499 36,000  Level Minneapolis Center
Sat 03:30:10 PM 43.8950 -91.3858 287° West 431 496 36,000  Level Minneapolis Center
Sat 03:31:12 PM 43.9311 -91.5764 285° West 431 496 36,000  Level Minneapolis Center
Sat 03:32:14 PM 43.9550 -91.7256 283° West 431 496 36,000  Level Minneapolis Center
Sat 03:33:15 PM 43.9825 -91.8878 283° West 434 499 36,000  Level Minneapolis Center
Sat 03:34:18 PM 44.0142 -92.0814 283° West 431 496 36,000  Level Minneapolis Center
Sat 03:35:19 PM 44.0400 -92.2422 283° West 428 493 36,000  Level Minneapolis Center
Sat 03:36:21 PM 44.0664 -92.4028 283° West 427 491 36,000  Level Minneapolis Center
Sat 03:37:23 PM 44.0861 -92.5303 282° West 425 489 36,000  Level Minneapolis Center
Sat 03:38:25 PM 44.1167 -92.7239 282° West 427 491 36,000  Level Minneapolis Center
Sat 03:39:26 PM 44.1417 -92.8839 282° West 424 488 36,000  Level Minneapolis Center
Sat 03:40:28 PM 44.1708 -93.0750 282° West 421 484 36,000  Level Minneapolis Center
Sat 03:41:30 PM 44.1958 -93.2356 282° West 423 487 36,000  Level Minneapolis Center
Sat 03:42:32 PM 44.2208 -93.3972 282° West 427 491 36,000  Level Minneapolis Center
Sat 03:43:33 PM 44.2447 -93.5575 282° West 422 486 36,000  Level Minneapolis Center
Sat 03:44:35 PM 44.2686 -93.7175 282° West 421 484 36,000  Level Minneapolis Center
Sat 03:45:37 PM 44.2925 -93.8781 282° West 423 487 36,000  Level Minneapolis Center
Sat 03:46:39 PM 44.3158 -94.0394 281° West 424 488 36,000  Level Minneapolis Center
Sat 03:47:40 PM 44.3394 -94.1992 282° West 422 486 36,000  Level Minneapolis Center
Sat 03:48:42 PM 44.3664 -94.3897 281° West 419 482 36,000  Level Minneapolis Center
Sat 03:49:44 PM 44.3897 -94.5486 282° West 418 481 36,000  Level Minneapolis Center
Sat 03:50:45 PM 44.4122 -94.7181 281° West 412 474 36,000  Level Minneapolis Center
Sat 03:51:47 PM 44.4336 -94.8739 281° West 411 473 36,000  Level Minneapolis Center
Sat 03:52:49 PM 44.4556 -95.0281 281° West 408 470 36,000  Level Minneapolis Center
Sat 03:53:51 PM 44.4700 -95.1842 277° West 408 470 36,000  Level Minneapolis Center
Sat 03:54:52 PM 44.4650 -95.3444 268° West 413 475 36,000  Level Minneapolis Center
Sat 03:55:54 PM 44.4603 -95.5036 268° West 413 475 36,000  Level Minneapolis Center
Sat 03:56:56 PM 44.4564 -95.6622 268° West 412 474 36,000  Level Minneapolis Center
Sat 03:57:57 PM 44.4525 -95.8531 268° West 412 474 36,000  Level Minneapolis Center
Sat 03:58:59 PM 44.4486 -96.0106 268° West 411 473 36,000  Level Minneapolis Center
Sat 04:00:01 PM 44.4442 -96.1661 268° West 407 468 36,000  Level Minneapolis Center
Sat 04:01:03 PM 44.4397 -96.3206 268° West 404 465 36,000  Level Minneapolis Center
Sat 04:02:04 PM 44.4344 -96.4761 267° West 404 465 36,000  Level Minneapolis Center
Sat 04:03:18 PM 44.4275 -96.6931 268° West 402 463 36,000  Level Minneapolis Center
Sat 04:04:20 PM 44.4228 -96.8478 268° West 401 461 36,000  Level Minneapolis Center
Sat 04:05:22 PM 44.4167 -97.0025 267° West 400 460 36,000  Level Minneapolis Center
Sat 04:06:23 PM 44.4108 -97.1575 267° West 401 461 36,000  Level Minneapolis Center
Sat 04:07:25 PM 44.4056 -97.3119 267° West 400 460 36,000  Level Minneapolis Center
Sat 04:08:26 PM 44.4003 -97.4669 267° West 400 460 36,000  Level Minneapolis Center
Sat 04:09:28 PM 44.3925 -97.6508 267° West 397 457 36,000  Level Minneapolis Center
Sat 04:10:42 PM 44.3867 -97.8044 267° West 396 456 36,000  Level Minneapolis Center
Sat 04:11:44 PM 44.3778 -97.9886 266° West 397 457 36,000  Level Minneapolis Center
Sat 04:12:46 PM 44.3717 -98.1408 267° West 396 456 36,000  Level Minneapolis Center
Sat 04:13:47 PM 44.3644 -98.2931 266° West 395 455 36,000  Level Minneapolis Center
Sat 04:14:49 PM 44.3581 -98.4486 267° West 394 453 36,000  Level Minneapolis Center
Sat 04:15:51 PM 44.3508 -98.6011 266° West 394 453 36,000  Level Minneapolis Center
Sat 04:16:53 PM 44.3433 -98.7517 266° West 390 449 36,000  Level Minneapolis Center
Sat 04:17:54 PM 44.3347 -98.9342 266° West 391 450 36,000  Level Minneapolis Center
Sat 04:18:56 PM 44.3256 -99.0861 265° West 392 451 36,000  Level Minneapolis Center
Sat 04:19:58 PM 44.3178 -99.2372 266° West 390 449 36,000  Level Minneapolis Center
Sat 04:21:12 PM 44.3083 -99.3894 265° West 392 451 36,000  Level Minneapolis Center
Sat 04:22:14 PM 44.2989 -99.5714 266° West 392 451 36,000  Level Minneapolis Center
Sat 04:23:16 PM 44.2892 -99.7222 265° West 390 449 36,000  Level Minneapolis Center
Sat 04:24:17 PM 44.2803 -99.8733 265° West 390 449 36,000  Level Minneapolis Center
Sat 04:25:19 PM 44.2714 -100.0242 265° West 389 448 36,000  Level Minneapolis Center
Sat 04:26:21 PM 44.2597 -100.2036 265° West 387 445 36,000  Level Minneapolis Center
Sat 04:27:23 PM 44.2511 -100.3536 265° West 386 444 36,000  Level Minneapolis Center
Sat 04:28:25 PM 44.2414 -100.5036 265° West 387 445 36,000  Level Minneapolis Center
Sat 04:29:27 PM 44.2308 -100.6536 264° West 388 447 36,000  Level Minneapolis Center
Sat 04:30:29 PM 44.2197 -100.8033 264° West 388 447 36,000 -683 Level Minneapolis Center
Sat 04:31:30 PM 44.2100 -100.9539 265° West 389 448 34,600 -1,561 Descending Minneapolis Center
Sat 04:32:32 PM 44.2008 -101.0994 265° West 385 443 32,800 -1,984 Descending Minneapolis Center
Sat 04:33:34 PM 44.1911 -101.2406 265° West 377 434 30,500 -2,468 Descending Minneapolis Center
Sat 04:34:36 PM 44.1778 -101.4064 264° West 368 423 27,700 -2,318 Descending Minneapolis Center
Sat 04:35:46 PM 44.1656 -101.5400 263° West 357 411 25,400 -2,273 Descending Denver Center
Sat 04:36:48 PM 44.1539 -101.7000 264° West 350 403 22,700 -2,419 Descending Denver Center
Sat 04:37:50 PM 44.1456 -101.8311 265° West 342 394 20,400 -2,146 Descending Denver Center
Sat 04:38:51 PM 44.1353 -101.9589 264° West 335 386 18,300 -1,955 Descending Denver Center
Sat 04:40:02 PM 44.1236 -102.1092 264° West 314 361 16,100 -1,790 Descending Denver Center
Sat 04:40:55 PM 44.1061 -102.1994 255° West 318 366 14,600 -1,736 Descending Denver Center
Sat 04:42:03 PM 44.0817 -102.3344 256° West 288 331 12,600 -1,500 Descending Denver Center
Sat 04:42:59 PM 44.0678 -102.4114 256° West 280 322 11,500 -1,373 Descending Denver Center
Sat 04:44:01 PM 44.0494 -102.5319 258° West 266 306 9,900 -1,258 Descending Denver Center
Sat 04:45:03 PM 44.0322 -102.6250 256° West 265 305 8,900 -968 Descending Denver Center
Sat 04:46:05 PM 44.0136 -102.7156 254° West 261 300 7,900 -1,070 Descending Denver Center
Sat 04:47:12 PM 43.9925 -102.8417 257° West 254 292 6,600 -1,082 Descending Denver Center
Sat 04:48:07 PM 43.9783 -102.9192 256° West 238 274 5,700 -939 Descending Denver Center
Sat 04:49:07 PM 43.9747 -102.9939 266° West 183 211 4,800 -992 Descending Denver Center
Sat 04:50:14 PM 44.0128 -103.0361 321° Northwest 140 161 3,600 -1,075 Descending Denver Center

Login

Don't have an account? Register now (free) for customized features, flight alerts, and more!